LA HONDA (LAH)

Elevation: 425' · SAN GREGORIO CR basin · Operator: CAL FIRE

Query executed Tuesday at 11:10:27   clock

Provisional data, subject to change.
Select a sensor type for a plot of data.

Earlier

Date   /   Time   RAIN     TEMP     REL HUM     FUEL MS     FUEL TP     WIND SP     WIND DR     PEAK WS     PEAK WD     SOLAR R     BAT VOL    
(PDT)INCHES   DEG F   %   %   DEG F   MPH   DEG   MPH   DEG   W/M^2   VOLTS  
09/22/2014 11:00 0.21 69 67 14 78 5 237 9 235 547.00 13.7
09/22/2014 12:00 0.21 75 56 10 89 4 280 12 236 660.00 13.6
09/22/2014 13:00 0.21 76 56 9 94 6 233 10 236 716.00 13.5
09/22/2014 14:00 0.21 81 46 8 87 4 269 10 251 717.00 13.5
09/22/2014 15:00 0.21 74 55 8 93 6 246 14 235 657.00 13.5
09/22/2014 16:00 0.21 72 55 7 91 6 250 13 239 538.00 13.5
09/22/2014 17:00 0.21 68 64 7 78 4 238 12 234 314.00 13.6
09/22/2014 18:00 0.21 69 62 8 74 4 254 9 235 232.00 13.8
09/22/2014 19:00 0.21 62 77 9 61 1 263 9 224 34.00 13.4
09/22/2014 20:00 0.21 59 85 10 56 1 339 4 248 0.00 13.2
09/22/2014 21:00 0.21 57 89 11 54 2 67 3 82 0.00 13.0
09/22/2014 22:00 0.21 55 91 13 53 3 97 5 83 0.00 12.9
09/22/2014 23:00 0.21 55 92 15 53 2 154 6 72 0.00 12.9
09/23/2014 00:00 0.21 56 91 16 56 3 93 4 91 0.00 12.8
09/23/2014 01:00 0.21 55 94 18 51 1 34 4 70 0.00 12.8
09/23/2014 02:00 0.21 53 95 19 51 4 74 5 77 0.00 12.8
09/23/2014 03:00 0.21 53 95 20 51 4 88 5 81 0.00 12.8
09/23/2014 04:00 0.21 54 96 21 51 1 70 5 68 0.00 12.8
09/23/2014 05:00 0.21 51 95 22 49 4 87 5 88 0.00 12.7
09/23/2014 06:00 0.21 51 96 22 48 2 76 5 88 0.00 12.7
09/23/2014 07:00 0.21 50 96 23 48 4 87 5 92 1.00 12.6
09/23/2014 08:00 0.21 56 96 24 54 0 97 5 97 55.00 13.1
09/23/2014 09:00 0.21 61 91 22 63 2 161 5 120 224.00 14.6
09/23/2014 10:00 0.21 67 74 20 68 3 241 7 238 405.00 13.8
09/23/2014 11:00 0.21 72 61 15 79 5 247 9 236 551.00 13.7

Later | Latest

Warning! This data is preliminary and subject to revision.

Download Data Now Download Data Now | Show LAH Map | 24 Hours LAH Data | Plot all LAH Sensors | Daily LAH Data | LAH Info